Latest Weather Observations for Avalon

IDV60801

Issued at 11:34 am EDT Tuesday 24 January 2017 (issued every 30 minutes, with the page automatically refreshed every 10 minutes)

About weather observations | Map of weather stations | Latest weather observations for VIC | Other Formats
Station Details ID: 087113 Name: AVALON AIRPORT Lat: -38.03 Lon: 144.48 Height: 10.6 m
Data from the previous 72 hours. | See also: Recent months at Avalon
Date/Time
EDT
Temp
°C
App
Temp
°C
Dew
Point
°C
Rel
Hum
%
Delta-T
°C
Wind Press
QNH
hPa
Press
MSL
hPa
Rain since
9am
mm
Dir  Spd
km/h
Gust
km/h
Spd
kts
Gust
kts
24/11:30am 21.4 16.0 8.0 42 7.0 SW 26 37 14 20 1014.5 1014.5 0.0
24/11:00am 21.1 15.4 8.4 44 6.7 WSW 28 39 15 21 1014.4 1014.4 0.0
24/10:30am 20.1 14.9 10.2 53 5.3 WSW 28 35 15 19 1014.1 1014.1 0.0
24/10:00am 19.9 14.2 9.8 52 5.4 WSW 30 39 16 21 1013.7 1013.7 0.0
24/09:30am 19.0 14.6 11.8 63 4.0 W 26 39 14 21 1013.2 1013.2 0.0
24/09:00am 18.9 14.1 11.7 63 4.0 WSW 28 37 15 20 1012.7 1012.7 0.4
24/08:30am 18.3 13.8 12.5 69 3.2 W 28 37 15 20 1012.1 1012.1 0.4
24/08:00am 17.7 12.4 13.0 74 2.6 WSW 33 43 18 23 1011.1 1011.1 0.4
24/07:30am 17.8 13.0 14.1 79 2.1 WSW 32 41 17 22 1010.1 1010.1 0.4
24/07:00am 18.0 15.0 14.7 81 1.9 W 24 33 13 18 1009.0 1009.0 0.4
24/06:30am 18.2 14.5 14.9 81 1.9 W 28 41 15 22 1008.3 1008.3 0.4
24/06:00am 18.7 13.4 15.2 80 2.1 WSW 37 56 20 30 1007.1 1007.1 0.4
24/05:30am 19.4 14.6 17.5 89 1.2 W 39 59 21 32 1005.9 1005.9 0.4
24/05:17am 19.5 16.3 18.2 92 0.8 W 32 50 17 27 1005.6 1005.6 0.4
24/05:00am 19.6 16.1 18.8 95 0.5 W 35 50 19 27 1005.2 1005.2 0.4
24/04:57am 19.6 16.2 18.9 96 0.4 W 35 50 19 27 1005.2 1005.2 0.4
24/04:34am 19.6 16.9 19.6 100 0.0 WSW 33 43 18 23 1005.1 1005.1 0.4
24/04:30am 19.8 16.8 19.8 100 0.0 WSW 35 48 19 26 1005.0 1005.0 0.4
24/04:09am 20.6 18.3 20.6 100 0.0 W 33 46 18 25 1004.7 1004.7 0.2
24/04:00am 20.9 18.8 20.9 100 0.0 W 33 46 18 25 1004.4 1004.4 0.2
24/03:52am 20.9 19.4 20.9 100 0.0 W 30 46 16 25 1004.4 1004.4 0.2
24/03:33am 21.4 18.4 21.4 100 0.0 W 39 57 21 31 1004.1 1004.1 0.2
24/03:30am 21.5 18.1 21.3 99 0.1 W 41 57 22 31 1004.0 1004.0 0.2
24/03:17am 22.1 19.2 21.6 97 0.3 W 39 59 21 32 1003.6 1003.6 0.2
24/03:01am 22.8 19.1 20.7 88 1.4 WNW 41 52 22 28 1003.4 1003.4 0.2
24/03:00am 22.9 19.5 20.6 87 1.5 WNW 39 52 21 28 1003.3 1003.3 0.2
24/02:53am 23.8 22.8 19.7 78 2.6 WNW 24 48 13 26 1003.1 1003.1 0.2
24/02:30am 22.1 22.5 19.1 83 1.9 WNW 15 17 8 9 1002.8 1002.8 0.2
24/02:00am 21.1 22.3 19.0 88 1.3 NNW 11 13 6 7 1003.1 1003.1 0.2
24/01:30am 21.0 21.8 19.1 89 1.2 N 13 17 7 9 1002.7 1002.7 0.2
24/01:00am 20.9 22.0 19.6 92 0.8 N 13 17 7 9 1003.2 1003.2 0.2
24/12:30am 20.9 21.4 19.2 90 1.1 N 15 20 8 11 1003.3 1003.3 0.2
24/12:00am 20.9 21.9 19.4 91 1.0 N 13 17 7 9 1003.5 1003.5 0.2
 
Date/Time
EDT
Temp
°C
App
Temp
°C
Dew
Point
°C
Rel
Hum
%
Delta-T
°C
Wind Press
QNH
hPa
Press
MSL
hPa
Rain since
9am
mm
Dir  Spd
km/h
Gust
km/h
Spd
kts
Gust
kts
23/11:30pm 20.7 21.8 19.7 94 0.6 NE 13 17 7 9 1003.6 1003.6 0.2
23/11:00pm 20.8 23.7 19.1 90 1.1 - 2 6 1 3 1004.3 1004.3 0.0
23/10:30pm 20.8 21.5 19.6 93 0.8 N 15 20 8 11 1004.4 1004.4 0.0
23/10:00pm 20.8 23.6 18.9 89 1.2 ESE 2 7 1 4 1003.4 1003.4 0.0
23/09:30pm 21.1 23.6 18.1 83 1.9 SW 2 9 1 5 1003.8 1003.8 0.0
23/09:00pm 21.1 20.3 18.1 83 1.9 W 19 24 10 13 1005.3 1005.3 0.0
23/08:30pm 21.7 18.1 17.1 75 2.8 WNW 32 44 17 24 1004.9 1004.9 0.0
23/08:00pm 21.8 18.5 17.0 74 2.9 WNW 30 35 16 19 1003.8 1003.8 0.0
23/07:30pm 24.4 21.3 15.6 58 5.3 W 26 39 14 21 1003.3 1003.3 0.0
23/07:00pm 26.7 21.7 14.1 46 7.5 W 33 46 18 25 1002.5 1002.5 0.0
23/06:30pm 29.3 24.0 13.1 37 9.6 SW 33 44 18 24 1001.7 1001.7 0.0
23/06:09pm 33.2 26.9 12.2 28 12.5 WSW 37 59 20 32 1000.8 1000.8 0.0
23/06:00pm 33.8 27.5 11.0 25 13.4 WSW 35 48 19 26 1000.8 1000.8 0.0
23/05:40pm 34.9 27.9 10.0 22 14.4 W 37 54 20 29 1000.7 1000.7 0.0
23/05:35pm 35.8 30.0 9.3 20 15.2 WNW 30 50 16 27 1000.7 1000.7 0.0
23/05:30pm 36.3 30.6 8.2 18 15.9 NW 28 41 15 22 1000.5 1000.5 0.0
23/05:00pm 37.6 31.5 8.4 17 16.7 NNW 30 43 16 23 1000.6 1000.6 0.0
23/04:30pm 37.3 32.5 9.0 18 16.3 WNW 24 52 13 28 1000.5 1000.5 0.0
23/04:00pm 37.8 33.5 7.7 16 17.1 NNW 20 30 11 16 1001.1 1001.1 0.0
23/03:30pm 37.6 31.3 5.6 14 17.5 WNW 28 37 15 20 1001.6 1001.6 0.0
23/03:00pm 37.0 31.5 6.1 15 17.1 NW 24 35 13 19 1001.8 1001.8 0.0
23/02:30pm 37.5 31.5 5.5 14 17.5 NNW 26 39 14 21 1002.0 1002.0 0.0
23/02:00pm 37.5 30.0 4.4 13 17.9 NNW 33 46 18 25 1002.2 1002.2 0.0
23/01:46pm 38.0 32.3 4.8 13 18.0 NW 24 48 13 26 1002.3 1002.3 0.0
23/01:30pm 38.5 32.9 5.2 13 18.2 NW 24 39 13 21 1002.6 1002.6 0.0
23/01:00pm 38.0 33.5 6.9 15 17.5 NW 20 33 11 18 1002.9 1002.9 0.0
23/12:30pm 37.4 31.8 5.4 14 17.4 NNW 24 39 13 21 1003.2 1003.2 0.0
23/12:00pm 36.7 33.5 10.1 20 15.6 N 17 28 9 15 1003.7 1003.7 0.0
23/11:30am 35.5 32.6 9.8 21 14.9 NNW 15 22 8 12 1004.2 1004.2 0.0
23/11:00am 30.6 30.5 19.6 51 7.2 SE 19 22 10 12 1004.4 1004.4 0.0
23/10:30am 30.1 30.9 19.8 54 6.8 SE 15 22 8 12 1004.9 1004.9 0.0
23/10:00am 28.8 29.9 18.0 52 6.9 E 9 13 5 7 1005.4 1005.4 0.0
23/09:30am 26.1 26.9 17.2 58 5.6 NE 9 11 5 6 1005.9 1005.9 0.0
23/09:00am 24.0 24.6 17.7 68 3.9 ENE 11 13 6 7 1006.0 1006.0 0.0
23/08:30am 21.3 21.8 18.3 83 1.9 ENE 13 19 7 10 1005.7 1005.7 0.0
23/08:00am 19.8 20.9 18.1 90 1.1 NE 9 11 5 6 1006.1 1006.1 0.0
23/07:30am 19.1 19.8 17.9 93 0.7 ENE 11 15 6 8 1006.2 1006.2 0.0
23/07:00am 17.8 20.4 17.6 99 0.1 CALM 0 0 0 0 1006.3 1006.3 0.0
23/06:30am 18.2 20.4 17.4 95 0.5 N 2 7 1 4 1006.5 1006.5 0.0
23/06:00am 18.4 20.0 17.9 97 0.3 NNE 6 9 3 5 1006.3 1006.3 0.0
23/05:30am 18.5 20.0 18.0 97 0.3 NNE 7 9 4 5 1006.5 1006.5 0.0
23/05:00am 18.3 20.6 17.8 97 0.3 N 2 7 1 4 1006.6 1006.6 0.0
23/04:30am 18.1 19.6 17.6 97 0.3 NW 6 9 3 5 1006.7 1006.7 0.0
23/04:00am 18.1 19.4 17.5 96 0.4 N 7 9 4 5 1006.7 1006.7 0.0
23/03:30am 18.4 20.3 17.6 95 0.5 NW 4 9 2 5 1007.0 1007.0 0.0
23/03:00am 18.5 21.2 17.7 95 0.5 CALM 0 0 0 0 1007.4 1007.4 0.0
23/02:30am 18.3 19.7 17.3 94 0.6 W 6 7 3 4 1007.9 1007.9 0.0
23/02:00am 18.4 19.5 17.2 93 0.7 W 7 9 4 5 1008.1 1008.1 0.0
23/01:30am 18.1 19.3 16.8 92 0.8 W 6 7 3 4 1008.4 1008.4 0.0
23/01:00am 18.4 18.9 17.4 94 0.6 WNW 11 13 6 7 1009.0 1009.0 0.0
23/12:30am 18.4 20.5 17.2 93 0.7 WSW 2 9 1 5 1009.1 1009.1 0.0
23/12:00am 18.5 19.7 17.3 93 0.7 W 7 9 4 5 1009.9 1009.9 0.0
 
Date/Time
EDT
Temp
°C
App
Temp
°C
Dew
Point
°C
Rel
Hum
%
Delta-T
°C
Wind Press
QNH
hPa
Press
MSL
hPa
Rain since
9am
mm
Dir  Spd
km/h
Gust
km/h
Spd
kts
Gust
kts
22/11:30pm 18.2 18.5 16.9 92 0.8 W 11 15 6 8 1010.5 1010.5 0.0
22/11:00pm 18.4 19.3 16.7 90 1.0 WSW 7 9 4 5 1010.3 1010.3 0.0
22/10:30pm 18.6 19.1 16.6 88 1.2 WSW 9 13 5 7 1010.9 1010.9 0.0
22/10:00pm 19.0 18.5 16.8 87 1.3 SW 15 20 8 11 1011.2 1011.2 0.0
22/09:30pm 19.4 18.5 16.8 85 1.6 SW 17 22 9 12 1011.2 1011.2 0.0
22/09:00pm 20.2 19.5 16.4 79 2.3 SW 15 19 8 10 1010.9 1010.9 0.0
22/08:30pm 21.4 20.6 16.1 72 3.2 SW 15 19 8 10 1010.9 1010.9 0.0
22/08:00pm 23.7 23.7 16.2 63 4.6 S 11 15 6 8 1010.8 1010.8 0.0
22/07:30pm 24.7 23.8 15.9 58 5.3 SSE 15 20 8 11 1010.7 1010.7 0.0
22/07:00pm 24.5 22.7 16.0 59 5.2 SSE 20 24 11 13 1010.5 1010.5 0.0
22/06:30pm 24.8 22.3 16.2 58 5.3 S 24 30 13 16 1010.6 1010.6 0.0
22/06:00pm 25.5 22.5 15.8 55 5.9 S 26 32 14 17 1010.8 1010.8 0.0
22/05:30pm 26.5 23.5 14.9 49 7.0 S 24 33 13 18 1011.2 1011.2 0.0
22/05:00pm 26.8 23.9 13.9 45 7.7 SSE 22 30 12 16 1011.5 1011.5 0.0
22/04:30pm 27.7 25.0 13.6 42 8.4 SSE 20 28 11 15 1011.8 1011.8 0.0
22/04:00pm 27.0 23.6 11.1 37 9.0 SE 20 26 11 14 1012.2 1012.2 0.0
22/03:30pm 26.8 23.8 12.5 41 8.3 SE 20 28 11 15 1012.5 1012.5 0.0
22/03:00pm 25.5 22.1 12.4 44 7.5 SE 22 26 12 14 1012.9 1012.9 0.0
22/02:30pm 24.7 20.6 11.3 43 7.5 ESE 24 35 13 19 1013.2 1013.2 0.0
22/02:00pm 24.1 20.9 11.8 46 7.0 ESE 20 30 11 16 1013.4 1013.4 0.0
22/01:30pm 23.2 20.1 11.6 48 6.5 ESE 19 26 10 14 1013.8 1013.8 0.0
22/01:00pm 22.6 19.3 11.7 50 6.1 SE 20 26 11 14 1014.2 1014.2 0.0
22/12:30pm 22.2 19.1 12.2 53 5.6 ESE 20 28 11 15 1014.4 1014.4 0.0
22/12:00pm 22.1 19.4 11.8 52 5.8 E 17 24 9 13 1014.7 1014.7 0.0
22/11:30am 21.7 18.4 11.7 53 5.6 E 20 30 11 16 1014.8 1014.8 0.0
22/11:00am 20.8 18.6 13.3 62 4.3 E 17 22 9 12 1015.2 1015.2 0.0
22/10:30am 20.3 17.9 12.5 61 4.4 E 17 20 9 11 1015.4 1015.4 0.0
22/10:00am 19.5 18.6 13.7 69 3.3 ENE 11 17 6 9 1015.9 1015.9 0.0
22/09:30am 18.9 17.7 14.0 73 2.8 ESE 13 17 7 9 1016.2 1016.2 0.0
22/09:00am 18.2 18.2 14.1 77 2.3 NE 7 13 4 7 1016.5 1016.5 0.0
22/08:30am 16.8 18.2 15.3 91 0.9 NW 2 6 1 3 1016.7 1016.7 0.0
22/08:00am 14.8 15.1 14.6 99 0.1 NW 6 7 3 4 1016.5 1016.5 0.0
22/07:30am 13.5 12.9 13.5 100 0.0 NW 9 9 5 5 1016.5 1016.5 0.0
22/07:00am 12.0 11.3 12.0 100 0.0 WNW 7 9 4 5 1016.1 1016.1 0.0
22/06:30am 11.8 11.0 11.8 100 0.0 W 7 9 4 5 1016.2 1016.2 0.0
22/06:00am 11.6 10.3 11.4 99 0.1 NNW 9 9 5 5 1016.1 1016.1 0.0
22/05:30am 12.2 11.1 12.0 99 0.1 WNW 9 11 5 6 1016.0 1016.0 0.0
22/05:00am 11.9 10.7 11.7 99 0.1 WNW 9 11 5 6 1015.8 1015.8 0.0
22/04:30am 12.0 11.2 11.8 99 0.1 NW 7 7 4 4 1015.5 1015.5 0.0
22/04:00am 12.1 11.4 11.9 99 0.1 NW 7 9 4 5 1015.4 1015.4 0.0
22/03:30am 12.0 12.6 11.8 99 0.1 CALM 0 0 0 0 1015.6 1015.6 0.0
22/03:00am 11.8 12.3 11.6 99 0.1 CALM 0 0 0 0 1015.7 1015.7 0.0
22/02:30am 12.5 13.1 12.0 97 0.3 CALM 0 0 0 0 1015.9 1015.9 0.0
22/02:00am 13.7 14.5 12.6 93 0.6 CALM 0 0 0 0 1016.2 1016.2 0.0
22/01:30am 13.7 14.5 12.6 93 0.6 CALM 0 0 0 0 1016.4 1016.4 0.0
22/01:00am 14.2 13.6 12.4 89 1.0 S 7 9 4 5 1016.5 1016.5 0.0
22/12:30am 14.6 14.1 12.5 87 1.1 SSE 7 9 4 5 1016.7 1016.7 0.0
22/12:00am 14.4 13.4 12.3 87 1.1 S 9 11 5 6 1016.6 1016.6 0.0
 
Date/Time
EDT
Temp
°C
App
Temp
°C
Dew
Point
°C
Rel
Hum
%
Delta-T
°C
Wind Press
QNH
hPa
Press
MSL
hPa
Rain since
9am
mm
Dir  Spd
km/h
Gust
km/h
Spd
kts
Gust
kts
21/11:30pm 14.6 12.9 12.3 86 1.3 SSE 13 15 7 8 1016.8 1016.8 0.0
21/11:00pm 14.9 13.1 12.2 84 1.5 SSE 13 15 7 8 1016.9 1016.9 0.0
21/10:30pm 15.5 13.4 12.3 81 1.7 S 15 17 8 9 1017.0 1017.0 0.0
21/10:00pm 15.7 14.0 12.6 82 1.7 S 13 17 7 9 1017.0 1017.0 0.0
21/09:30pm 15.6 13.8 12.2 80 1.9 SSE 13 15 7 8 1016.7 1016.7 0.0
21/09:00pm 16.1 14.1 11.5 74 2.5 SSE 13 13 7 7 1016.5 1016.5 0.0
21/08:30pm 17.5 14.7 11.5 68 3.3 SSE 17 20 9 11 1016.4 1016.4 0.0
21/08:00pm 18.7 15.4 11.5 63 3.9 SSE 20 26 11 14 1016.1 1016.1 0.0
21/07:30pm 19.4 16.0 11.4 60 4.4 SSE 20 26 11 14 1015.8 1015.8 0.0
21/07:00pm 19.7 16.4 11.5 59 4.5 S 20 28 11 15 1015.6 1015.6 0.0
21/06:30pm 20.7 16.8 12.1 58 4.8 S 24 32 13 17 1015.3 1015.3 0.0
21/06:00pm 20.7 17.3 11.3 55 5.2 SSE 20 28 11 15 1015.3 1015.3 0.0
21/05:30pm 21.6 19.0 11.9 54 5.4 SE 17 24 9 13 1015.2 1015.2 0.0
21/05:00pm 21.6 18.7 12.2 55 5.3 ESE 19 26 10 14 1015.2 1015.2 0.0
21/04:30pm 21.1 17.7 11.4 54 5.4 SE 20 28 11 15 1015.5 1015.5 0.0
21/04:00pm 21.9 18.7 11.9 53 5.6 SE 20 28 11 15 1015.4 1015.4 0.0
21/03:30pm 22.1 18.9 11.2 50 6.0 SSE 19 30 10 16 1015.5 1015.5 0.0
21/03:00pm 21.6 18.2 10.7 50 6.0 SSE 19 24 10 13 1015.4 1015.4 0.0
21/02:30pm 22.6 19.0 10.4 46 6.7 SE 20 33 11 18 1015.4 1015.4 0.0
21/02:00pm 21.7 17.5 9.9 47 6.4 SE 22 30 12 16 1015.4 1015.4 0.0
21/01:30pm 21.7 18.4 9.6 46 6.5 S 17 28 9 15 1015.6 1015.6 0.0
21/01:00pm 21.2 17.4 9.8 48 6.1 SSE 20 28 11 15 1015.9 1015.9 0.0
21/12:30pm 21.3 18.2 10.2 49 6.0 S 17 28 9 15 1016.0 1016.0 0.0
21/12:00pm 20.9 19.7 10.4 51 5.7 S 7 17 4 9 1016.0 1016.0 0.0

Other Formats:

Comma delimited format used in spreadsheet applications
http://www.bom.gov.au/fwo/IDV60801/IDV60801.94854.axf

JavaScript Object Notation format (JSON) in row-major order
http://www.bom.gov.au/fwo/IDV60801/IDV60801.94854.json